sensor_id;sensor_type;location;lat;lon;timestamp;pressure;altitude;pressure_sealevel;temperature;humidity
9421;BME280;4749;51.398;5.466;2023-01-27T00:01:16;102249.34;;;6.61;100.00
9421;BME280;4749;51.398;5.466;2023-01-27T00:03:43;102244.97;;;6.60;100.00
9421;BME280;4749;51.398;5.466;2023-01-27T00:06:10;102244.13;;;6.61;100.00
9421;BME280;4749;51.398;5.466;2023-01-27T00:08:39;102247.63;;;6.62;100.00
9421;BME280;4749;51.398;5.466;2023-01-27T00:11:06;102240.63;;;6.61;100.00
9421;BME280;4749;51.398;5.466;2023-01-27T00:13:52;102241.44;;;6.60;100.00
9421;BME280;4749;51.398;5.466;2023-01-27T00:16:19;102237.84;;;6.56;100.00
9421;BME280;4749;51.398;5.466;2023-01-27T00:18:46;102241.19;;;6.54;100.00
9421;BME280;4749;51.398;5.466;2023-01-27T00:21:13;102240.13;;;6.48;100.00
9421;BME280;4749;51.398;5.466;2023-01-27T00:23:59;102237.25;;;6.42;100.00
9421;BME280;4749;51.398;5.466;2023-01-27T00:26:45;102244.78;;;6.35;100.00
9421;BME280;4749;51.398;5.466;2023-01-27T00:29:12;102232.28;;;6.28;100.00
9421;BME280;4749;51.398;5.466;2023-01-27T00:31:39;102233.94;;;6.26;100.00
9421;BME280;4749;51.398;5.466;2023-01-27T00:34:25;102239.84;;;6.21;100.00
9421;BME280;4749;51.398;5.466;2023-01-27T00:36:52;102231.06;;;6.19;100.00
9421;BME280;4749;51.398;5.466;2023-01-27T00:39:19;102226.66;;;6.18;100.00
9421;BME280;4749;51.398;5.466;2023-01-27T00:41:47;102235.38;;;6.19;100.00
9421;BME280;4749;51.398;5.466;2023-01-27T00:44:14;102232.88;;;6.22;100.00
9421;BME280;4749;51.398;5.466;2023-01-27T00:46:41;102238.28;;;6.25;100.00
9421;BME280;4749;51.398;5.466;2023-01-27T00:49:10;102232.28;;;6.28;100.00
9421;BME280;4749;51.398;5.466;2023-01-27T00:51:37;102242.78;;;6.29;100.00
9421;BME280;4749;51.398;5.466;2023-01-27T00:54:05;102243.75;;;6.31;100.00
9421;BME280;4749;51.398;5.466;2023-01-27T00:56:32;102243.75;;;6.31;100.00
9421;BME280;4749;51.398;5.466;2023-01-27T00:59:00;102238.59;;;6.33;100.00
9421;BME280;4749;51.398;5.466;2023-01-27T01:01:28;102241.22;;;6.33;100.00
9421;BME280;4749;51.398;5.466;2023-01-27T01:03:56;102247.31;;;6.33;100.00
9421;BME280;4749;51.398;5.466;2023-01-27T01:06:25;102246.50;;;6.34;100.00
9421;BME280;4749;51.398;5.466;2023-01-27T01:08:56;102249.09;;;6.34;100.00
9421;BME280;4749;51.398;5.466;2023-01-27T01:11:24;102248.22;;;6.34;100.00
9421;BME280;4749;51.398;5.466;2023-01-27T01:13:52;102246.44;;;6.33;100.00
9421;BME280;4749;51.398;5.466;2023-01-27T01:16:23;102242.88;;;6.31;100.00
9421;BME280;4749;51.398;5.466;2023-01-27T01:18:51;102250.63;;;6.29;100.00
9421;BME280;4749;51.398;5.466;2023-01-27T01:21:19;102247.94;;;6.28;100.00
9421;BME280;4749;51.398;5.466;2023-01-27T01:23:46;102254.00;;;6.27;100.00
9421;BME280;4749;51.398;5.466;2023-01-27T01:26:16;102254.81;;;6.26;100.00
9421;BME280;4749;51.398;5.466;2023-01-27T01:28:44;102264.31;;;6.24;100.00
9421;BME280;4749;51.398;5.466;2023-01-27T01:31:15;102256.34;;;6.20;100.00
9421;BME280;4749;51.398;5.466;2023-01-27T01:33:44;102253.66;;;6.19;100.00
9421;BME280;4749;51.398;5.466;2023-01-27T01:36:20;102264.94;;;6.18;100.00
9421;BME280;4749;51.398;5.466;2023-01-27T01:38:47;102257.88;;;6.15;100.00
9421;BME280;4749;51.398;5.466;2023-01-27T01:41:19;102270.94;;;6.15;100.00
9421;BME280;4749;51.398;5.466;2023-01-27T01:43:48;102270.03;;;6.15;100.00
9421;BME280;4749;51.398;5.466;2023-01-27T01:46:17;102276.09;;;6.14;100.00
9421;BME280;4749;51.398;5.466;2023-01-27T01:48:54;102266.38;;;6.11;100.00
9421;BME280;4749;51.398;5.466;2023-01-27T01:51:43;102271.63;;;6.11;100.00
9421;BME280;4749;51.398;5.466;2023-01-27T01:54:20;102269.00;;;6.11;100.00
9421;BME280;4749;51.398;5.466;2023-01-27T01:56:56;102267.22;;;6.10;100.00
9421;BME280;4749;51.398;5.466;2023-01-27T02:00:06;102272.44;;;6.10;100.00
9421;BME280;4749;51.398;5.466;2023-01-27T02:02:34;102274.94;;;6.07;100.00
9421;BME280;4749;51.398;5.466;2023-01-27T02:05:13;102271.34;;;6.05;100.00
9421;BME280;4749;51.398;5.466;2023-01-27T02:10:32;102269.44;;;6.01;100.00
9421;BME280;4749;51.398;5.466;2023-01-27T02:12:59;102271.09;;;5.99;100.00
9421;BME280;4749;51.398;5.466;2023-01-27T02:15:29;102269.31;;;5.98;100.00
9421;BME280;4749;51.398;5.466;2023-01-27T02:17:58;102271.84;;;5.97;100.00
9421;BME280;4749;51.398;5.466;2023-01-27T02:20:47;102275.28;;;5.96;100.00
9421;BME280;4749;51.398;5.466;2023-01-27T02:26:09;102283.19;;;5.97;100.00
9421;BME280;4749;51.398;5.466;2023-01-27T02:28:39;102282.28;;;5.97;100.00
9421;BME280;4749;51.398;5.466;2023-01-27T02:31:06;102284.88;;;5.97;100.00
9421;BME280;4749;51.398;5.466;2023-01-27T02:33:34;102283.09;;;5.96;100.00
9421;BME280;4749;51.398;5.466;2023-01-27T02:36:10;102285.72;;;5.96;100.00
9421;BME280;4749;51.398;5.466;2023-01-27T02:38:46;102287.44;;;5.95;100.00
9421;BME280;4749;51.398;5.466;2023-01-27T02:41:22;102280.44;;;5.94;100.00
9421;BME280;4749;51.398;5.466;2023-01-27T02:43:51;102285.66;;;5.94;100.00
9421;BME280;4749;51.398;5.466;2023-01-27T02:46:19;102280.44;;;5.94;100.00
9421;BME280;4749;51.398;5.466;2023-01-27T02:48:47;102285.59;;;5.92;100.00
9421;BME280;4749;51.398;5.466;2023-01-27T02:51:14;102289.09;;;5.93;100.00
9421;BME280;4749;51.398;5.466;2023-01-27T02:53:41;102285.53;;;5.91;100.00
9421;BME280;4749;51.398;5.466;2023-01-27T02:56:09;102283.72;;;5.90;100.00
9421;BME280;4749;51.398;5.466;2023-01-27T02:58:36;102285.34;;;5.88;100.00
9421;BME280;4749;51.398;5.466;2023-01-27T03:01:04;102284.44;;;5.87;100.00
9421;BME280;4749;51.398;5.466;2023-01-27T03:03:31;102282.66;;;5.86;100.00
9421;BME280;4749;51.398;5.466;2023-01-27T03:05:58;102295.72;;;5.86;100.00
9421;BME280;4749;51.398;5.466;2023-01-27T03:08:25;102288.66;;;5.84;100.00
9421;BME280;4749;51.398;5.466;2023-01-27T03:10:53;102284.19;;;5.81;100.00
9421;BME280;4749;51.398;5.466;2023-01-27T03:13:22;102286.81;;;5.81;100.00
9421;BME280;4749;51.398;5.466;2023-01-27T03:15:50;102287.69;;;5.82;100.00
9421;BME280;4749;51.398;5.466;2023-01-27T03:18:39;102284.19;;;5.81;100.00
9421;BME280;4749;51.398;5.466;2023-01-27T03:21:06;102286.72;;;5.80;100.00
9421;BME280;4749;51.398;5.466;2023-01-27T03:23:34;102291.94;;;5.80;100.00
9421;BME280;4749;51.398;5.466;2023-01-27T03:26:05;102295.38;;;5.79;100.00
9421;BME280;4749;51.398;5.466;2023-01-27T03:28:33;102288.38;;;5.78;100.00
9421;BME280;4749;51.398;5.466;2023-01-27T03:31:05;102281.31;;;5.75;100.00
9421;BME280;4749;51.398;5.466;2023-01-27T03:33:33;102296.19;;;5.78;100.00
9421;BME280;4749;51.398;5.466;2023-01-27T03:36:01;102297.09;;;5.78;100.00
9421;BME280;4749;51.398;5.466;2023-01-27T03:38:47;102304.84;;;5.77;100.00
9421;BME280;4749;51.398;5.466;2023-01-27T03:41:33;102307.41;;;5.75;100.00
9421;BME280;4749;51.398;5.466;2023-01-27T03:44:19;102303.91;;;5.75;100.00
9421;BME280;4749;51.398;5.466;2023-01-27T03:47:05;102310.84;;;5.74;100.00
9421;BME280;4749;51.398;5.466;2023-01-27T03:49:32;102303.91;;;5.75;100.00
9421;BME280;4749;51.398;5.466;2023-01-27T03:51:59;102303.97;;;5.76;100.00
9421;BME280;4749;51.398;5.466;2023-01-27T03:54:27;102318.72;;;5.76;100.00
9421;BME280;4749;51.398;5.466;2023-01-27T03:56:54;102315.22;;;5.75;100.00
9421;BME280;4749;51.398;5.466;2023-01-27T03:59:21;102311.72;;;5.75;100.00
9421;BME280;4749;51.398;5.466;2023-01-27T04:01:48;102319.56;;;5.75;100.00
9421;BME280;4749;51.398;5.466;2023-01-27T04:04:15;102326.50;;;5.74;100.00
9421;BME280;4749;51.398;5.466;2023-01-27T04:07:01;102322.00;;;5.72;100.00
9421;BME280;4749;51.398;5.466;2023-01-27T04:09:30;102313.28;;;5.71;100.00
9421;BME280;4749;51.398;5.466;2023-01-27T04:12:03;102320.31;;;5.72;100.00
9421;BME280;4749;51.398;5.466;2023-01-27T04:14:32;102318.59;;;5.73;100.00
9421;BME280;4749;51.398;5.466;2023-01-27T04:17:03;102326.44;;;5.73;100.00
9421;BME280;4749;51.398;5.466;2023-01-27T04:19:31;102329.81;;;5.72;100.00
9421;BME280;4749;51.398;5.466;2023-01-27T04:21:59;102324.63;;;5.72;100.00
9421;BME280;4749;51.398;5.466;2023-01-27T04:24:27;102322.84;;;5.71;100.00
9421;BME280;4749;51.398;5.466;2023-01-27T04:27:01;102328.88;;;5.70;100.00
9421;BME280;4749;51.398;5.466;2023-01-27T04:29:35;102325.31;;;5.68;100.00
9421;BME280;4749;51.398;5.466;2023-01-27T04:32:04;102332.25;;;5.67;100.00
9421;BME280;4749;51.398;5.466;2023-01-27T04:34:36;102339.13;;;5.65;100.00
9421;BME280;4749;51.398;5.466;2023-01-27T04:37:04;102332.19;;;5.65;100.00
9421;BME280;4749;51.398;5.466;2023-01-27T04:39:33;102333.00;;;5.64;100.00
9421;BME280;4749;51.398;5.466;2023-01-27T04:42:01;102328.75;;;5.67;100.00
9421;BME280;4749;51.398;5.466;2023-01-27T04:44:28;102334.84;;;5.67;100.00
9421;BME280;4749;51.398;5.466;2023-01-27T04:46:55;102327.91;;;5.68;100.00
9421;BME280;4749;51.398;5.466;2023-01-27T04:49:22;102328.81;;;5.68;100.00
9421;BME280;4749;51.398;5.466;2023-01-27T04:51:53;102335.75;;;5.68;100.00
9421;BME280;4749;51.398;5.466;2023-01-27T04:54:20;102341.84;;;5.68;100.00
9421;BME280;4749;51.398;5.466;2023-01-27T04:56:58;102351.34;;;5.66;100.00
9421;BME280;4749;51.398;5.466;2023-01-27T04:59:26;102346.06;;;5.64;100.00
9421;BME280;4749;51.398;5.466;2023-01-27T05:01:54;102358.13;;;5.62;100.00
9421;BME280;4749;51.398;5.466;2023-01-27T05:04:21;102358.13;;;5.62;100.00
9421;BME280;4749;51.398;5.466;2023-01-27T05:06:48;102360.72;;;5.62;100.00
9421;BME280;4749;51.398;5.466;2023-01-27T05:09:16;102369.44;;;5.63;100.00
9421;BME280;4749;51.398;5.466;2023-01-27T05:11:43;102365.03;;;5.62;100.00
9421;BME280;4749;51.398;5.466;2023-01-27T05:14:10;102367.59;;;5.60;100.00
9421;BME280;4749;51.398;5.466;2023-01-27T05:16:39;102372.81;;;5.60;100.00
9421;BME280;4749;51.398;5.466;2023-01-27T05:19:08;102375.47;;;5.62;100.00
9421;BME280;4749;51.398;5.466;2023-01-27T05:21:35;102368.56;;;5.62;100.00
9421;BME280;4749;51.398;5.466;2023-01-27T05:24:03;102377.19;;;5.61;100.00
9421;BME280;4749;51.398;5.466;2023-01-27T05:26:30;102379.81;;;5.61;100.00
9421;BME280;4749;51.398;5.466;2023-01-27T05:28:58;102378.91;;;5.61;100.00
9421;BME280;4749;51.398;5.466;2023-01-27T05:31:28;102381.41;;;5.58;100.00
9421;BME280;4749;51.398;5.466;2023-01-27T05:33:58;102387.50;;;5.58;100.00
9421;BME280;4749;51.398;5.466;2023-01-27T05:36:27;102380.56;;;5.59;100.00
9421;BME280;4749;51.398;5.466;2023-01-27T05:38:55;102386.75;;;5.61;100.00
9421;BME280;4749;51.398;5.466;2023-01-27T05:41:22;102382.34;;;5.60;100.00
9421;BME280;4749;51.398;5.466;2023-01-27T05:43:53;102381.53;;;5.61;100.00
9421;BME280;4749;51.398;5.466;2023-01-27T05:46:23;102397.19;;;5.61;100.00
9421;BME280;4749;51.398;5.466;2023-01-27T05:48:54;102393.75;;;5.62;100.00
9421;BME280;4749;51.398;5.466;2023-01-27T05:51:24;102390.25;;;5.61;100.00
9421;BME280;4749;51.398;5.466;2023-01-27T05:53:52;102398.91;;;5.60;100.00
9421;BME280;4749;51.398;5.466;2023-01-27T05:56:22;102400.63;;;5.60;100.00
9421;BME280;4749;51.398;5.466;2023-01-27T05:58:49;102403.16;;;5.58;100.00
9421;BME280;4749;51.398;5.466;2023-01-27T06:01:19;102400.50;;;5.57;100.00
9421;BME280;4749;51.398;5.466;2023-01-27T06:03:48;102398.59;;;5.54;100.00
9421;BME280;4749;51.398;5.466;2023-01-27T06:06:19;102402.94;;;5.54;100.00
9421;BME280;4749;51.398;5.466;2023-01-27T06:08:47;102399.44;;;5.53;100.00
9421;BME280;4749;51.398;5.466;2023-01-27T06:11:16;102402.03;;;5.53;100.00
9421;BME280;4749;51.398;5.466;2023-01-27T06:13:44;102404.56;;;5.52;100.00
9421;BME280;4749;51.398;5.466;2023-01-27T06:16:14;102387.13;;;5.51;100.00
9421;BME280;4749;51.398;5.466;2023-01-27T06:18:44;102398.41;;;5.50;100.00
9421;BME280;4749;51.398;5.466;2023-01-27T06:21:14;102396.69;;;5.50;100.00
9421;BME280;4749;51.398;5.466;2023-01-27T06:23:42;102399.22;;;5.49;100.00
9421;BME280;4749;51.398;5.466;2023-01-27T06:26:14;102407.19;;;5.52;100.00
9421;BME280;4749;51.398;5.466;2023-01-27T06:28:42;102399.34;;;5.52;100.00
9421;BME280;4749;51.398;5.466;2023-01-27T06:31:20;102406.22;;;5.50;100.00
9421;BME280;4749;51.398;5.466;2023-01-27T06:33:49;102400.19;;;5.51;100.00
9421;BME280;4749;51.398;5.466;2023-01-27T06:36:20;102401.97;;;5.52;100.00
9421;BME280;4749;51.398;5.466;2023-01-27T06:38:49;102410.69;;;5.52;100.00
9421;BME280;4749;51.398;5.466;2023-01-27T06:41:17;102406.44;;;5.54;100.00
9421;BME280;4749;51.398;5.466;2023-01-27T06:43:44;102404.81;;;5.56;100.00
9421;BME280;4749;51.398;5.466;2023-01-27T06:46:12;102405.69;;;5.57;100.00
9421;BME280;4749;51.398;5.466;2023-01-27T06:48:41;102413.59;;;5.58;100.00
9421;BME280;4749;51.398;5.466;2023-01-27T06:51:08;102405.78;;;5.58;100.00
9421;BME280;4749;51.398;5.466;2023-01-27T06:53:35;102411.00;;;5.58;100.00
9421;BME280;4749;51.398;5.466;2023-01-27T06:56:05;102409.28;;;5.59;100.00
9421;BME280;4749;51.398;5.466;2023-01-27T06:58:33;102413.66;;;5.60;100.00
9421;BME280;4749;51.398;5.466;2023-01-27T07:01:00;102416.28;;;5.60;100.00
9421;BME280;4749;51.398;5.466;2023-01-27T07:03:27;102405.78;;;5.58;100.00
9421;BME280;4749;51.398;5.466;2023-01-27T07:05:54;102412.00;;;5.62;100.00
9421;BME280;4749;51.398;5.466;2023-01-27T07:08:22;102415.63;;;5.64;100.00
9421;BME280;4749;51.398;5.466;2023-01-27T07:10:49;102420.06;;;5.67;100.00
9421;BME280;4749;51.398;5.466;2023-01-27T07:13:16;102425.38;;;5.68;100.00
9421;BME280;4749;51.398;5.466;2023-01-27T07:15:46;102426.25;;;5.69;100.00
9421;BME280;4749;51.398;5.466;2023-01-27T07:18:14;102423.72;;;5.70;100.00
9421;BME280;4749;51.398;5.466;2023-01-27T07:20:42;102430.66;;;5.70;100.00
9421;BME280;4749;51.398;5.466;2023-01-27T07:23:09;102431.53;;;5.70;100.00
9421;BME280;4749;51.398;5.466;2023-01-27T07:25:37;102429.81;;;5.71;100.00
9421;BME280;4749;51.398;5.466;2023-01-27T07:28:05;102439.44;;;5.72;100.00
9421;BME280;4749;51.398;5.466;2023-01-27T07:30:33;102432.53;;;5.72;100.00
9421;BME280;4749;51.398;5.466;2023-01-27T07:33:09;102445.66;;;5.74;100.00
9421;BME280;4749;51.398;5.466;2023-01-27T07:35:38;102434.38;;;5.75;100.00
9421;BME280;4749;51.398;5.466;2023-01-27T07:38:06;102446.59;;;5.76;100.00
9421;BME280;4749;51.398;5.466;2023-01-27T07:40:34;102437.94;;;5.77;100.00
9421;BME280;4749;51.398;5.466;2023-01-27T07:43:02;102429.31;;;5.78;100.00
9421;BME280;4749;51.398;5.466;2023-01-27T07:45:30;102437.19;;;5.79;100.00
9421;BME280;4749;51.398;5.466;2023-01-27T07:48:07;102443.41;;;5.81;100.00
9421;BME280;4749;51.398;5.466;2023-01-27T07:50:35;102444.38;;;5.83;100.00
9421;BME280;4749;51.398;5.466;2023-01-27T07:53:05;102442.72;;;5.85;100.00
9421;BME280;4749;51.398;5.466;2023-01-27T07:55:33;102447.09;;;5.86;100.00
9421;BME280;4749;51.398;5.466;2023-01-27T07:58:00;102447.09;;;5.86;100.00
9421;BME280;4749;51.398;5.466;2023-01-27T08:00:28;102460.44;;;5.91;100.00
9421;BME280;4749;51.398;5.466;2023-01-27T08:02:59;102464.00;;;5.93;100.00
9421;BME280;4749;51.398;5.466;2023-01-27T08:05:30;102459.72;;;5.95;100.00
9421;BME280;4749;51.398;5.466;2023-01-27T08:07:57;102470.19;;;5.95;100.00
9421;BME280;4749;51.398;5.466;2023-01-27T08:10:25;102463.25;;;5.96;100.00
9421;BME280;4749;51.398;5.466;2023-01-27T08:12:52;102465.94;;;5.97;100.00
9421;BME280;4749;51.398;5.466;2023-01-27T08:15:20;102469.47;;;5.98;100.00
9421;BME280;4749;51.398;5.466;2023-01-27T08:17:57;102473.03;;;6.00;100.00
9421;BME280;4749;51.398;5.466;2023-01-27T08:20:26;102460.94;;;6.02;100.00
9421;BME280;4749;51.398;5.466;2023-01-27T08:22:54;102461.94;;;6.05;100.00
9421;BME280;4749;51.398;5.466;2023-01-27T08:25:22;102457.72;;;6.07;100.00
9421;BME280;4749;51.398;5.466;2023-01-27T08:27:54;102458.69;;;6.09;100.00
9421;BME280;4749;51.398;5.466;2023-01-27T08:30:22;102461.28;;;6.09;100.00
9421;BME280;4749;51.398;5.466;2023-01-27T08:32:51;102463.00;;;6.09;100.00
9421;BME280;4749;51.398;5.466;2023-01-27T08:35:18;102467.47;;;6.11;100.00
9421;BME280;4749;51.398;5.466;2023-01-27T08:37:48;102471.03;;;6.13;100.00
9421;BME280;4749;51.398;5.466;2023-01-27T08:40:16;102462.31;;;6.13;100.00
9421;BME280;4749;51.398;5.466;2023-01-27T08:42:43;102465.97;;;6.16;100.00
9421;BME280;4749;51.398;5.466;2023-01-27T08:45:11;102472.16;;;6.18;100.00
9421;BME280;4749;51.398;5.466;2023-01-27T08:47:39;102474.09;;;6.23;100.00
9421;BME280;4749;51.398;5.466;2023-01-27T08:50:07;102463.78;;;6.26;100.00
9421;BME280;4749;51.398;5.466;2023-01-27T08:52:34;102468.25;;;6.28;100.00
9421;BME280;4749;51.398;5.466;2023-01-27T08:55:02;102464.06;;;6.32;100.00
9421;BME280;4749;51.398;5.466;2023-01-27T08:57:29;102474.66;;;6.35;100.00
9421;BME280;4749;51.398;5.466;2023-01-27T09:00:04;102475.59;;;6.37;100.00
9421;BME280;4749;51.398;5.466;2023-01-27T09:02:33;102482.63;;;6.38;100.00
9421;BME280;4749;51.398;5.466;2023-01-27T09:05:00;102491.28;;;6.37;100.00
9421;BME280;4749;51.398;5.466;2023-01-27T09:07:27;102493.00;;;6.36;100.00
9421;BME280;4749;51.398;5.466;2023-01-27T09:09:54;102494.84;;;6.39;100.00
9421;BME280;4749;51.398;5.466;2023-01-27T09:12:39;102484.56;;;6.42;100.00
9421;BME280;4749;51.398;5.466;2023-01-27T09:15:07;102495.44;;;6.51;100.00
9421;BME280;4749;51.398;5.466;2023-01-27T09:17:35;102492.13;;;6.55;100.00
9421;BME280;4749;51.398;5.466;2023-01-27T09:20:03;102509.81;;;6.61;100.00
9421;BME280;4749;51.398;5.466;2023-01-27T09:22:31;102498.69;;;6.65;100.00
9421;BME280;4749;51.398;5.466;2023-01-27T09:24:58;102501.47;;;6.69;100.00
9421;BME280;4749;51.398;5.466;2023-01-27T09:27:25;102515.59;;;6.73;100.00
9421;BME280;4749;51.398;5.466;2023-01-27T09:30:07;102511.25;;;6.73;100.00
9421;BME280;4749;51.398;5.466;2023-01-27T09:32:37;102514.13;;;6.80;100.00
9421;BME280;4749;51.398;5.466;2023-01-27T09:35:05;102510.84;;;6.84;100.00
9421;BME280;4749;51.398;5.466;2023-01-27T09:37:43;102513.75;;;6.90;100.00
9421;BME280;4749;51.398;5.466;2023-01-27T09:40:31;102503.47;;;6.94;100.00
9421;BME280;4749;51.398;5.466;2023-01-27T09:46:16;102517.78;;;7.02;100.00
9421;BME280;4749;51.398;5.466;2023-01-27T09:52:29;102516.44;;;7.12;100.00
9421;BME280;4749;51.398;5.466;2023-01-27T10:10:23;102522.47;;;7.30;100.00
9421;BME280;4749;51.398;5.466;2023-01-27T10:15:56;102524.38;;;7.34;100.00
9421;BME280;4749;51.398;5.466;2023-01-27T10:21:51;102527.16;;;7.58;100.00
9421;BME280;4749;51.398;5.466;2023-01-27T10:27:18;102532.09;;;7.73;100.00
9421;BME280;4749;51.398;5.466;2023-01-27T10:30:13;102519.09;;;7.75;100.00
9421;BME280;4749;51.398;5.466;2023-01-27T10:33:20;102516.28;;;7.70;100.00
9421;BME280;4749;51.398;5.466;2023-01-27T10:35:58;102522.34;;;7.69;100.00
9421;BME280;4749;51.398;5.466;2023-01-27T10:45:35;102522.47;;;7.72;100.00
9421;BME280;4749;51.398;5.466;2023-01-27T10:48:19;102524.91;;;7.68;100.00
9421;BME280;4749;51.398;5.466;2023-01-27T10:56:53;102512.91;;;7.52;100.00
9421;BME280;4749;51.398;5.466;2023-01-27T10:59:49;102520.13;;;7.57;100.00
9421;BME280;4749;51.398;5.466;2023-01-27T11:06:21;102521.84;;;7.78;100.00
9421;BME280;4749;51.398;5.466;2023-01-27T11:08:33;102518.81;;;7.89;100.00
9421;BME280;4749;51.398;5.466;2023-01-27T11:11:05;102507.09;;;8.02;100.00
9421;BME280;4749;51.398;5.466;2023-01-27T11:16:52;102507.41;;;8.10;100.00
9421;BME280;4749;51.398;5.466;2023-01-27T11:22:58;102504.06;;;8.14;100.00
9421;BME280;4749;51.398;5.466;2023-01-27T11:25:35;102500.53;;;8.13;100.00
9421;BME280;4749;51.398;5.466;2023-01-27T11:31:43;102501.41;;;8.35;100.00
9421;BME280;4749;51.398;5.466;2023-01-27T11:37:39;102495.03;;;8.51;100.00
9421;BME280;4749;51.398;5.466;2023-01-27T11:40:19;102504.69;;;8.52;100.00
9421;BME280;4749;51.398;5.466;2023-01-27T11:42:47;102505.50;;;8.51;100.00
9421;BME280;4749;51.398;5.466;2023-01-27T11:45:19;102502.94;;;8.52;100.00
9421;BME280;4749;51.398;5.466;2023-01-27T11:47:54;102502.09;;;8.53;100.00
9421;BME280;4749;51.398;5.466;2023-01-27T11:50:30;102501.16;;;8.51;100.00
9421;BME280;4749;51.398;5.466;2023-01-27T11:53:26;102501.75;;;8.44;100.00
9421;BME280;4749;51.398;5.466;2023-01-27T11:55:59;102495.78;;;8.26;100.00
9421;BME280;4749;51.398;5.466;2023-01-27T12:01:18;102490.84;;;8.11;100.00
9421;BME280;4749;51.398;5.466;2023-01-27T12:04:10;102495.91;;;8.06;100.00
9421;BME280;4749;51.398;5.466;2023-01-27T12:06:49;102497.47;;;8.01;100.00
9421;BME280;4749;51.398;5.466;2023-01-27T12:09:39;102488.66;;;7.99;100.00
9421;BME280;4749;51.398;5.466;2023-01-27T12:17:31;102491.59;;;7.86;100.00
9421;BME280;4749;51.398;5.466;2023-01-27T12:20:48;102493.41;;;7.87;100.00
9421;BME280;4749;51.398;5.466;2023-01-27T12:23:36;102482.03;;;7.86;100.00
9421;BME280;4749;51.398;5.466;2023-01-27T12:26:08;102489.94;;;7.88;100.00
9421;BME280;4749;51.398;5.466;2023-01-27T12:28:51;102478.47;;;7.84;100.00
9421;BME280;4749;51.398;5.466;2023-01-27T12:31:26;102482.03;;;7.86;100.00
9421;BME280;4749;51.398;5.466;2023-01-27T12:36:27;102479.59;;;7.91;100.00
9421;BME280;4749;51.398;5.466;2023-01-27T12:38:59;102469.81;;;7.87;100.00
9421;BME280;4749;51.398;5.466;2023-01-27T12:41:30;102473.28;;;7.86;100.00
9421;BME280;4749;51.398;5.466;2023-01-27T12:44:15;102476.00;;;7.89;100.00
9421;BME280;4749;51.398;5.466;2023-01-27T12:47:02;102480.41;;;7.90;100.00
9421;BME280;4749;51.398;5.466;2023-01-27T12:49:34;102472.56;;;7.90;100.00
9421;BME280;4749;51.398;5.466;2023-01-27T12:52:04;102470.91;;;7.92;100.00
9421;BME280;4749;51.398;5.466;2023-01-27T12:54:34;102466.38;;;7.88;100.00
9421;BME280;4749;51.398;5.466;2023-01-27T12:57:05;102468.03;;;7.86;100.00
9421;BME280;4749;51.398;5.466;2023-01-27T12:59:53;102470.56;;;7.83;100.00
9421;BME280;4749;51.398;5.466;2023-01-27T13:02:25;102469.81;;;7.87;100.00
9421;BME280;4749;51.398;5.466;2023-01-27T13:05:01;102466.50;;;7.91;100.00
9421;BME280;4749;51.398;5.466;2023-01-27T13:07:37;102460.66;;;7.98;100.00
9421;BME280;4749;51.398;5.466;2023-01-27T13:10:21;102459.22;;;8.06;100.00
9421;BME280;4749;51.398;5.466;2023-01-27T13:12:51;102458.31;;;8.06;100.00
9421;BME280;4749;51.398;5.466;2023-01-27T13:15:25;102466.97;;;8.03;100.00
9421;BME280;4749;51.398;5.466;2023-01-27T13:17:59;102461.69;;;8.02;100.00
9421;BME280;4749;51.398;5.466;2023-01-27T13:20:44;102461.53;;;7.99;100.00
9421;BME280;4749;51.398;5.466;2023-01-27T13:23:30;102462.31;;;7.96;100.00
9421;BME280;4749;51.398;5.466;2023-01-27T13:31:44;102454.84;;;7.83;100.00
9421;BME280;4749;51.398;5.466;2023-01-27T13:34:45;102466.78;;;7.76;100.00
9421;BME280;4749;51.398;5.466;2023-01-27T13:40:22;102464.13;;;7.75;100.00
9421;BME280;4749;51.398;5.466;2023-01-27T13:43:12;102471.88;;;7.73;100.00
9421;BME280;4749;51.398;5.466;2023-01-27T13:46:18;102462.97;;;7.68;100.00
9421;BME280;4749;51.398;5.466;2023-01-27T13:49:03;102466.38;;;7.66;100.00
9421;BME280;4749;51.398;5.466;2023-01-27T13:51:34;102470.56;;;7.62;100.00
9421;BME280;4749;51.398;5.466;2023-01-27T13:54:05;102473.91;;;7.58;100.00
9421;BME280;4749;51.398;5.466;2023-01-27T14:00:21;102473.53;;;7.49;100.00
9421;BME280;4749;51.398;5.466;2023-01-27T14:03:15;102482.06;;;7.45;100.00
9421;BME280;4749;51.398;5.466;2023-01-27T14:06:07;102478.69;;;7.47;100.00
9421;BME280;4749;51.398;5.466;2023-01-27T14:11:58;102480.34;;;7.45;100.00
9421;BME280;4749;51.398;5.466;2023-01-27T14:14:50;102482.28;;;7.49;100.00
9421;BME280;4749;51.398;5.466;2023-01-27T14:17:51;102479.66;;;7.49;100.00
9421;BME280;4749;51.398;5.466;2023-01-27T14:20:54;102492.75;;;7.49;100.00
9421;BME280;4749;51.398;5.466;2023-01-27T14:26:42;102490.13;;;7.49;100.00
9421;BME280;4749;51.398;5.466;2023-01-27T14:33:09;102491.69;;;7.46;100.00
9421;BME280;4749;51.398;5.466;2023-01-27T14:38:31;102495.88;;;7.41;100.00
9421;BME280;4749;51.398;5.466;2023-01-27T14:53:28;102505.03;;;7.31;100.00
9421;BME280;4749;51.398;5.466;2023-01-27T15:02:06;102510.38;;;7.13;100.00
9421;BME280;4749;51.398;5.466;2023-01-27T15:05:09;102515.59;;;7.13;100.00
9421;BME280;4749;51.398;5.466;2023-01-27T15:10:30;102516.44;;;7.12;100.00
9421;BME280;4749;51.398;5.466;2023-01-27T15:24:20;102529.06;;;7.01;100.00
9421;BME280;4749;51.398;5.466;2023-01-27T15:26:52;102531.47;;;6.97;100.00
9421;BME280;4749;51.398;5.466;2023-01-27T15:29:26;102533.13;;;6.95;100.00
9421;BME280;4749;51.398;5.466;2023-01-27T15:35:30;102537.34;;;6.91;100.00
9421;BME280;4749;51.398;5.466;2023-01-27T15:38:18;102538.00;;;6.87;100.00
9421;BME280;4749;51.398;5.466;2023-01-27T15:41:06;102543.09;;;6.84;100.00
9421;BME280;4749;51.398;5.466;2023-01-27T15:43:39;102550.88;;;6.83;100.00
9421;BME280;4749;51.398;5.466;2023-01-27T15:46:30;102552.50;;;6.81;100.00
9421;BME280;4749;51.398;5.466;2023-01-27T15:48:59;102551.50;;;6.77;100.00
9421;BME280;4749;51.398;5.466;2023-01-27T15:51:33;102560.03;;;6.73;100.00
9421;BME280;4749;51.398;5.466;2023-01-27T15:54:01;102566.00;;;6.70;100.00
9421;BME280;4749;51.398;5.466;2023-01-27T15:56:44;102554.59;;;6.68;100.00
9421;BME280;4749;51.398;5.466;2023-01-27T15:59:25;102559.75;;;6.67;100.00